sensor_id;sensor_type;location;lat;lon;timestamp;P1;durP1;ratioP1;P2;durP2;ratioP2
77076;SDS011;66003;52.286;104.306;2023-04-19T00:01:34;4.82;;;2.08;;
77076;SDS011;66003;52.286;104.306;2023-04-19T00:04:00;9.40;;;3.22;;
77076;SDS011;66003;52.286;104.306;2023-04-19T00:06:27;7.38;;;2.22;;
77076;SDS011;66003;52.286;104.306;2023-04-19T00:08:55;6.50;;;1.90;;
77076;SDS011;66003;52.286;104.306;2023-04-19T00:11:22;6.10;;;2.15;;
77076;SDS011;66003;52.286;104.306;2023-04-19T00:13:49;8.18;;;2.67;;
77076;SDS011;66003;52.286;104.306;2023-04-19T00:16:15;5.15;;;2.17;;
77076;SDS011;66003;52.286;104.306;2023-04-19T00:21:07;10.25;;;2.10;;
77076;SDS011;66003;52.286;104.306;2023-04-19T00:26:03;11.60;;;3.65;;
77076;SDS011;66003;52.286;104.306;2023-04-19T00:28:29;12.63;;;4.13;;
77076;SDS011;66003;52.286;104.306;2023-04-19T00:30:56;13.45;;;3.17;;
77076;SDS011;66003;52.286;104.306;2023-04-19T00:33:22;6.68;;;3.05;;
77076;SDS011;66003;52.286;104.306;2023-04-19T00:35:48;6.15;;;2.05;;
77076;SDS011;66003;52.286;104.306;2023-04-19T00:38:14;8.15;;;2.08;;
77076;SDS011;66003;52.286;104.306;2023-04-19T00:40:40;9.65;;;2.22;;
77076;SDS011;66003;52.286;104.306;2023-04-19T00:43:06;10.25;;;3.50;;
77076;SDS011;66003;52.286;104.306;2023-04-19T00:45:33;7.90;;;2.88;;
77076;SDS011;66003;52.286;104.306;2023-04-19T00:48:01;7.25;;;2.72;;
77076;SDS011;66003;52.286;104.306;2023-04-19T00:50:27;7.03;;;1.98;;
77076;SDS011;66003;52.286;104.306;2023-04-19T00:52:54;10.07;;;2.60;;
77076;SDS011;66003;52.286;104.306;2023-04-19T00:55:21;8.15;;;2.05;;
77076;SDS011;66003;52.286;104.306;2023-04-19T00:57:48;5.43;;;1.25;;
77076;SDS011;66003;52.286;104.306;2023-04-19T01:00:16;2.90;;;1.38;;
77076;SDS011;66003;52.286;104.306;2023-04-19T01:02:42;4.72;;;1.38;;
77076;SDS011;66003;52.286;104.306;2023-04-19T01:05:09;5.78;;;1.95;;
77076;SDS011;66003;52.286;104.306;2023-04-19T01:07:35;3.75;;;1.80;;
77076;SDS011;66003;52.286;104.306;2023-04-19T01:10:01;3.83;;;1.35;;
77076;SDS011;66003;52.286;104.306;2023-04-19T01:12:29;4.90;;;1.48;;
77076;SDS011;66003;52.286;104.306;2023-04-19T01:14:56;5.20;;;1.23;;
77076;SDS011;66003;52.286;104.306;2023-04-19T01:17:23;4.30;;;1.42;;
77076;SDS011;66003;52.286;104.306;2023-04-19T01:20:01;4.32;;;1.70;;
77076;SDS011;66003;52.286;104.306;2023-04-19T01:24:56;4.38;;;1.48;;
77076;SDS011;66003;52.286;104.306;2023-04-19T01:27:23;5.93;;;2.00;;
77076;SDS011;66003;52.286;104.306;2023-04-19T01:29:49;5.53;;;2.25;;
77076;SDS011;66003;52.286;104.306;2023-04-19T01:32:16;5.03;;;1.58;;
77076;SDS011;66003;52.286;104.306;2023-04-19T01:34:51;5.40;;;1.98;;
77076;SDS011;66003;52.286;104.306;2023-04-19T01:37:17;7.05;;;2.53;;
77076;SDS011;66003;52.286;104.306;2023-04-19T01:39:44;6.28;;;1.70;;
77076;SDS011;66003;52.286;104.306;2023-04-19T01:42:10;4.20;;;1.20;;
77076;SDS011;66003;52.286;104.306;2023-04-19T01:44:36;8.25;;;1.88;;
77076;SDS011;66003;52.286;104.306;2023-04-19T01:47:03;5.00;;;1.90;;
77076;SDS011;66003;52.286;104.306;2023-04-19T01:49:29;4.85;;;1.95;;
77076;SDS011;66003;52.286;104.306;2023-04-19T01:51:56;5.93;;;2.03;;
77076;SDS011;66003;52.286;104.306;2023-04-19T01:54:22;7.15;;;2.38;;
77076;SDS011;66003;52.286;104.306;2023-04-19T01:56:48;6.25;;;1.92;;
77076;SDS011;66003;52.286;104.306;2023-04-19T01:59:14;5.65;;;1.67;;
77076;SDS011;66003;52.286;104.306;2023-04-19T02:01:41;9.68;;;3.72;;
77076;SDS011;66003;52.286;104.306;2023-04-19T02:04:07;8.70;;;2.17;;
77076;SDS011;66003;52.286;104.306;2023-04-19T02:06:34;6.65;;;2.30;;
77076;SDS011;66003;52.286;104.306;2023-04-19T02:09:00;9.85;;;2.55;;
77076;SDS011;66003;52.286;104.306;2023-04-19T02:11:26;9.38;;;2.05;;
77076;SDS011;66003;52.286;104.306;2023-04-19T02:13:53;6.28;;;2.20;;
77076;SDS011;66003;52.286;104.306;2023-04-19T02:16:19;6.13;;;2.08;;
77076;SDS011;66003;52.286;104.306;2023-04-19T02:18:47;7.07;;;2.45;;
77076;SDS011;66003;52.286;104.306;2023-04-19T02:21:17;4.53;;;2.17;;
77076;SDS011;66003;52.286;104.306;2023-04-19T02:23:44;6.35;;;1.70;;
77076;SDS011;66003;52.286;104.306;2023-04-19T02:26:10;8.43;;;1.90;;
77076;SDS011;66003;52.286;104.306;2023-04-19T02:28:37;6.15;;;1.80;;
77076;SDS011;66003;52.286;104.306;2023-04-19T02:31:04;4.78;;;1.35;;
77076;SDS011;66003;52.286;104.306;2023-04-19T02:33:31;5.25;;;1.25;;
77076;SDS011;66003;52.286;104.306;2023-04-19T02:35:57;7.47;;;1.75;;
77076;SDS011;66003;52.286;104.306;2023-04-19T02:38:23;7.20;;;1.98;;
77076;SDS011;66003;52.286;104.306;2023-04-19T02:40:50;8.98;;;1.88;;
77076;SDS011;66003;52.286;104.306;2023-04-19T02:43:16;8.90;;;1.60;;
77076;SDS011;66003;52.286;104.306;2023-04-19T02:45:42;5.05;;;1.30;;
77076;SDS011;66003;52.286;104.306;2023-04-19T02:48:09;4.47;;;1.02;;
77076;SDS011;66003;52.286;104.306;2023-04-19T02:50:35;5.50;;;1.17;;
77076;SDS011;66003;52.286;104.306;2023-04-19T02:53:03;5.47;;;1.25;;
77076;SDS011;66003;52.286;104.306;2023-04-19T02:55:29;7.22;;;1.42;;
77076;SDS011;66003;52.286;104.306;2023-04-19T02:57:55;6.72;;;1.70;;
77076;SDS011;66003;52.286;104.306;2023-04-19T03:00:21;4.65;;;1.35;;
77076;SDS011;66003;52.286;104.306;2023-04-19T03:02:47;5.80;;;1.70;;
77076;SDS011;66003;52.286;104.306;2023-04-19T03:07:39;7.03;;;1.05;;
77076;SDS011;66003;52.286;104.306;2023-04-19T03:10:06;1.98;;;1.23;;
77076;SDS011;66003;52.286;104.306;2023-04-19T03:12:32;1.92;;;1.17;;
77076;SDS011;66003;52.286;104.306;2023-04-19T03:14:59;4.22;;;1.02;;
77076;SDS011;66003;52.286;104.306;2023-04-19T03:19:51;3.42;;;1.10;;
77076;SDS011;66003;52.286;104.306;2023-04-19T03:22:17;2.33;;;1.10;;
77076;SDS011;66003;52.286;104.306;2023-04-19T03:24:43;1.05;;;0.55;;
77076;SDS011;66003;52.286;104.306;2023-04-19T03:27:10;2.58;;;1.25;;
77076;SDS011;66003;52.286;104.306;2023-04-19T03:29:36;1.83;;;1.02;;
77076;SDS011;66003;52.286;104.306;2023-04-19T03:32:02;3.63;;;1.88;;
77076;SDS011;66003;52.286;104.306;2023-04-19T03:34:30;2.72;;;1.15;;
77076;SDS011;66003;52.286;104.306;2023-04-19T03:36:57;1.35;;;0.82;;
77076;SDS011;66003;52.286;104.306;2023-04-19T03:39:23;1.60;;;0.50;;
77076;SDS011;66003;52.286;104.306;2023-04-19T03:41:49;1.63;;;0.95;;
77076;SDS011;66003;52.286;104.306;2023-04-19T03:44:16;1.48;;;0.60;;
77076;SDS011;66003;52.286;104.306;2023-04-19T03:46:42;1.92;;;1.00;;
77076;SDS011;66003;52.286;104.306;2023-04-19T03:49:10;0.88;;;0.60;;
77076;SDS011;66003;52.286;104.306;2023-04-19T03:51:36;2.72;;;0.77;;
77076;SDS011;66003;52.286;104.306;2023-04-19T03:54:03;1.20;;;0.55;;
77076;SDS011;66003;52.286;104.306;2023-04-19T03:56:29;1.00;;;0.45;;
77076;SDS011;66003;52.286;104.306;2023-04-19T03:58:55;2.05;;;0.63;;
77076;SDS011;66003;52.286;104.306;2023-04-19T04:01:22;2.45;;;0.93;;
77076;SDS011;66003;52.286;104.306;2023-04-19T04:03:48;2.92;;;0.93;;
77076;SDS011;66003;52.286;104.306;2023-04-19T04:06:15;4.45;;;1.13;;
77076;SDS011;66003;52.286;104.306;2023-04-19T04:08:41;4.53;;;1.27;;
77076;SDS011;66003;52.286;104.306;2023-04-19T04:11:07;2.25;;;0.70;;
77076;SDS011;66003;52.286;104.306;2023-04-19T04:13:33;3.55;;;1.00;;
77076;SDS011;66003;52.286;104.306;2023-04-19T04:16:00;4.22;;;1.27;;
77076;SDS011;66003;52.286;104.306;2023-04-19T04:18:26;4.82;;;1.13;;
77076;SDS011;66003;52.286;104.306;2023-04-19T04:20:53;7.00;;;1.00;;
77076;SDS011;66003;52.286;104.306;2023-04-19T04:23:19;5.78;;;1.25;;
77076;SDS011;66003;52.286;104.306;2023-04-19T04:25:46;7.70;;;1.25;;
77076;SDS011;66003;52.286;104.306;2023-04-19T04:28:12;3.20;;;0.77;;
77076;SDS011;66003;52.286;104.306;2023-04-19T04:30:40;3.08;;;0.73;;
77076;SDS011;66003;52.286;104.306;2023-04-19T04:33:31;2.08;;;1.05;;
77076;SDS011;66003;52.286;104.306;2023-04-19T04:35:57;4.43;;;0.73;;
77076;SDS011;66003;52.286;104.306;2023-04-19T04:38:23;2.67;;;0.93;;
77076;SDS011;66003;52.286;104.306;2023-04-19T04:40:50;1.95;;;0.85;;
77076;SDS011;66003;52.286;104.306;2023-04-19T04:43:22;2.33;;;1.35;;
77076;SDS011;66003;52.286;104.306;2023-04-19T04:45:50;2.08;;;0.63;;
77076;SDS011;66003;52.286;104.306;2023-04-19T04:48:16;0.85;;;0.68;;
77076;SDS011;66003;52.286;104.306;2023-04-19T04:50:42;4.95;;;1.17;;
77076;SDS011;66003;52.286;104.306;2023-04-19T04:53:09;1.95;;;0.68;;
77076;SDS011;66003;52.286;104.306;2023-04-19T04:55:36;2.90;;;1.33;;
77076;SDS011;66003;52.286;104.306;2023-04-19T04:58:03;1.13;;;0.60;;
77076;SDS011;66003;52.286;104.306;2023-04-19T05:00:32;2.85;;;0.68;;
77076;SDS011;66003;52.286;104.306;2023-04-19T05:05:25;2.38;;;0.77;;
77076;SDS011;66003;52.286;104.306;2023-04-19T05:07:51;1.75;;;1.17;;
77076;SDS011;66003;52.286;104.306;2023-04-19T05:10:17;2.13;;;0.93;;
77076;SDS011;66003;52.286;104.306;2023-04-19T05:12:43;1.20;;;0.70;;
77076;SDS011;66003;52.286;104.306;2023-04-19T05:15:09;1.27;;;0.55;;
77076;SDS011;66003;52.286;104.306;2023-04-19T05:17:36;0.98;;;0.38;;
77076;SDS011;66003;52.286;104.306;2023-04-19T05:20:02;1.52;;;1.05;;
77076;SDS011;66003;52.286;104.306;2023-04-19T05:22:30;1.35;;;0.40;;
77076;SDS011;66003;52.286;104.306;2023-04-19T05:24:56;1.52;;;0.93;;
77076;SDS011;66003;52.286;104.306;2023-04-19T05:27:22;3.28;;;0.80;;
77076;SDS011;66003;52.286;104.306;2023-04-19T05:29:48;2.63;;;0.80;;
77076;SDS011;66003;52.286;104.306;2023-04-19T05:32:16;1.02;;;0.77;;
77076;SDS011;66003;52.286;104.306;2023-04-19T05:34:42;1.02;;;0.68;;
77076;SDS011;66003;52.286;104.306;2023-04-19T05:37:08;1.08;;;0.95;;
77076;SDS011;66003;52.286;104.306;2023-04-19T05:39:34;1.63;;;0.77;;
77076;SDS011;66003;52.286;104.306;2023-04-19T05:42:00;1.73;;;0.80;;
77076;SDS011;66003;52.286;104.306;2023-04-19T05:44:27;2.35;;;1.30;;
77076;SDS011;66003;52.286;104.306;2023-04-19T05:46:53;1.58;;;0.90;;
77076;SDS011;66003;52.286;104.306;2023-04-19T05:49:19;1.17;;;0.38;;
77076;SDS011;66003;52.286;104.306;2023-04-19T05:51:45;2.28;;;0.75;;
77076;SDS011;66003;52.286;104.306;2023-04-19T05:54:11;3.83;;;0.82;;
77076;SDS011;66003;52.286;104.306;2023-04-19T05:56:38;2.97;;;0.93;;
77076;SDS011;66003;52.286;104.306;2023-04-19T05:59:05;2.00;;;0.70;;
77076;SDS011;66003;52.286;104.306;2023-04-19T06:01:32;2.63;;;0.55;;
77076;SDS011;66003;52.286;104.306;2023-04-19T06:03:59;1.40;;;0.60;;
77076;SDS011;66003;52.286;104.306;2023-04-19T06:06:25;1.48;;;0.40;;
77076;SDS011;66003;52.286;104.306;2023-04-19T06:08:52;1.10;;;0.30;;
77076;SDS011;66003;52.286;104.306;2023-04-19T06:11:18;0.95;;;0.57;;
77076;SDS011;66003;52.286;104.306;2023-04-19T06:13:45;1.58;;;1.05;;
77076;SDS011;66003;52.286;104.306;2023-04-19T06:16:11;2.35;;;0.70;;
77076;SDS011;66003;52.286;104.306;2023-04-19T06:18:37;1.70;;;1.10;;
77076;SDS011;66003;52.286;104.306;2023-04-19T06:21:03;2.03;;;0.65;;
77076;SDS011;66003;52.286;104.306;2023-04-19T06:23:30;1.33;;;0.50;;
77076;SDS011;66003;52.286;104.306;2023-04-19T06:25:56;1.42;;;0.70;;
77076;SDS011;66003;52.286;104.306;2023-04-19T06:28:23;2.38;;;1.17;;
77076;SDS011;66003;52.286;104.306;2023-04-19T06:30:49;2.42;;;1.02;;
77076;SDS011;66003;52.286;104.306;2023-04-19T06:33:15;1.35;;;1.02;;
77076;SDS011;66003;52.286;104.306;2023-04-19T06:35:41;1.85;;;0.85;;
77076;SDS011;66003;52.286;104.306;2023-04-19T06:38:08;1.40;;;0.70;;
77076;SDS011;66003;52.286;104.306;2023-04-19T06:40:34;1.73;;;1.08;;
77076;SDS011;66003;52.286;104.306;2023-04-19T06:43:00;1.35;;;1.25;;
77076;SDS011;66003;52.286;104.306;2023-04-19T06:45:26;3.60;;;1.17;;
77076;SDS011;66003;52.286;104.306;2023-04-19T06:47:53;2.75;;;1.15;;
77076;SDS011;66003;52.286;104.306;2023-04-19T06:50:19;3.95;;;1.45;;
77076;SDS011;66003;52.286;104.306;2023-04-19T06:52:45;3.05;;;1.10;;
77076;SDS011;66003;52.286;104.306;2023-04-19T06:55:12;6.28;;;1.88;;
77076;SDS011;66003;52.286;104.306;2023-04-19T06:57:38;5.55;;;1.67;;
77076;SDS011;66003;52.286;104.306;2023-04-19T07:00:04;5.55;;;1.42;;
77076;SDS011;66003;52.286;104.306;2023-04-19T07:02:32;4.03;;;2.10;;
77076;SDS011;66003;52.286;104.306;2023-04-19T07:04:59;3.20;;;1.95;;
77076;SDS011;66003;52.286;104.306;2023-04-19T07:07:25;6.43;;;1.40;;
77076;SDS011;66003;52.286;104.306;2023-04-19T07:09:52;5.97;;;1.35;;
77076;SDS011;66003;52.286;104.306;2023-04-19T07:12:18;3.58;;;1.45;;
77076;SDS011;66003;52.286;104.306;2023-04-19T07:14:45;2.75;;;1.25;;
77076;SDS011;66003;52.286;104.306;2023-04-19T07:17:11;7.95;;;1.77;;
77076;SDS011;66003;52.286;104.306;2023-04-19T07:19:38;1.75;;;1.00;;
77076;SDS011;66003;52.286;104.306;2023-04-19T07:22:05;2.65;;;0.93;;
77076;SDS011;66003;52.286;104.306;2023-04-19T07:24:31;2.70;;;0.98;;
77076;SDS011;66003;52.286;104.306;2023-04-19T07:26:57;3.33;;;1.55;;
77076;SDS011;66003;52.286;104.306;2023-04-19T07:29:24;3.30;;;1.05;;
77076;SDS011;66003;52.286;104.306;2023-04-19T07:31:50;3.28;;;1.65;;
77076;SDS011;66003;52.286;104.306;2023-04-19T07:34:20;6.10;;;2.17;;
77076;SDS011;66003;52.286;104.306;2023-04-19T07:36:48;8.88;;;2.38;;
77076;SDS011;66003;52.286;104.306;2023-04-19T07:39:14;8.48;;;2.15;;
77076;SDS011;66003;52.286;104.306;2023-04-19T07:41:40;10.07;;;2.03;;
77076;SDS011;66003;52.286;104.306;2023-04-19T07:44:06;6.72;;;2.33;;
77076;SDS011;66003;52.286;104.306;2023-04-19T07:46:32;5.53;;;2.03;;
77076;SDS011;66003;52.286;104.306;2023-04-19T07:48:59;11.32;;;2.25;;
77076;SDS011;66003;52.286;104.306;2023-04-19T07:51:25;11.70;;;2.13;;
77076;SDS011;66003;52.286;104.306;2023-04-19T07:56:17;10.15;;;2.00;;
77076;SDS011;66003;52.286;104.306;2023-04-19T07:58:44;6.97;;;1.67;;
77076;SDS011;66003;52.286;104.306;2023-04-19T08:01:10;7.10;;;2.42;;
77076;SDS011;66003;52.286;104.306;2023-04-19T08:03:36;5.72;;;2.53;;
77076;SDS011;66003;52.286;104.306;2023-04-19T08:06:03;7.03;;;1.95;;
77076;SDS011;66003;52.286;104.306;2023-04-19T08:08:32;6.25;;;2.42;;
77076;SDS011;66003;52.286;104.306;2023-04-19T08:10:59;2.28;;;0.90;;
77076;SDS011;66003;52.286;104.306;2023-04-19T08:13:27;2.70;;;1.42;;
77076;SDS011;66003;52.286;104.306;2023-04-19T08:15:53;3.88;;;1.20;;
77076;SDS011;66003;52.286;104.306;2023-04-19T08:18:23;3.85;;;1.83;;
77076;SDS011;66003;52.286;104.306;2023-04-19T08:21:02;3.72;;;0.88;;
77076;SDS011;66003;52.286;104.306;2023-04-19T08:31:16;1.35;;;0.68;;
77076;SDS011;66003;52.286;104.306;2023-04-19T08:33:45;1.25;;;0.63;;
77076;SDS011;66003;52.286;104.306;2023-04-19T08:36:12;4.30;;;1.48;;
77076;SDS011;66003;52.286;104.306;2023-04-19T08:38:38;1.50;;;0.82;;
77076;SDS011;66003;52.286;104.306;2023-04-19T08:41:05;2.50;;;1.50;;
77076;SDS011;66003;52.286;104.306;2023-04-19T08:43:44;1.98;;;1.05;;
77076;SDS011;66003;52.286;104.306;2023-04-19T08:50:06;1.98;;;0.82;;
77076;SDS011;66003;52.286;104.306;2023-04-19T08:52:58;1.50;;;0.73;;
77076;SDS011;66003;52.286;104.306;2023-04-19T08:55:26;2.58;;;1.05;;
77076;SDS011;66003;52.286;104.306;2023-04-19T08:57:54;0.90;;;0.35;;
77076;SDS011;66003;52.286;104.306;2023-04-19T09:00:22;2.45;;;0.73;;
77076;SDS011;66003;52.286;104.306;2023-04-19T09:02:49;0.73;;;0.40;;
77076;SDS011;66003;52.286;104.306;2023-04-19T09:05:18;0.95;;;0.35;;
77076;SDS011;66003;52.286;104.306;2023-04-19T09:07:44;1.10;;;0.50;;
77076;SDS011;66003;52.286;104.306;2023-04-19T09:10:13;1.10;;;0.80;;
77076;SDS011;66003;52.286;104.306;2023-04-19T09:15:40;1.15;;;1.05;;
77076;SDS011;66003;52.286;104.306;2023-04-19T09:18:09;1.30;;;0.70;;
77076;SDS011;66003;52.286;104.306;2023-04-19T09:20:39;1.77;;;1.27;;
77076;SDS011;66003;52.286;104.306;2023-04-19T09:23:08;2.20;;;0.88;;
77076;SDS011;66003;52.286;104.306;2023-04-19T09:25:37;1.63;;;0.90;;
77076;SDS011;66003;52.286;104.306;2023-04-19T09:28:11;1.02;;;0.60;;
77076;SDS011;66003;52.286;104.306;2023-04-19T09:30:39;2.92;;;1.40;;
77076;SDS011;66003;52.286;104.306;2023-04-19T09:33:06;0.65;;;0.40;;
77076;SDS011;66003;52.286;104.306;2023-04-19T09:35:39;1.25;;;0.75;;
77076;SDS011;66003;52.286;104.306;2023-04-19T09:38:07;1.88;;;1.45;;
77076;SDS011;66003;52.286;104.306;2023-04-19T09:40:33;2.33;;;1.17;;
77076;SDS011;66003;52.286;104.306;2023-04-19T09:43:00;1.38;;;0.90;;
77076;SDS011;66003;52.286;104.306;2023-04-19T09:45:37;0.75;;;0.68;;
77076;SDS011;66003;52.286;104.306;2023-04-19T09:48:05;1.63;;;1.08;;
77076;SDS011;66003;52.286;104.306;2023-04-19T09:50:32;1.48;;;0.60;;
77076;SDS011;66003;52.286;104.306;2023-04-19T09:52:59;1.98;;;0.95;;
77076;SDS011;66003;52.286;104.306;2023-04-19T09:55:25;0.50;;;0.47;;
77076;SDS011;66003;52.286;104.306;2023-04-19T09:57:52;1.92;;;0.73;;
77076;SDS011;66003;52.286;104.306;2023-04-19T10:00:18;2.47;;;0.30;;
77076;SDS011;66003;52.286;104.306;2023-04-19T10:02:50;2.60;;;0.88;;
77076;SDS011;66003;52.286;104.306;2023-04-19T10:05:22;0.55;;;0.35;;
77076;SDS011;66003;52.286;104.306;2023-04-19T10:07:50;1.08;;;0.70;;
77076;SDS011;66003;52.286;104.306;2023-04-19T10:10:17;2.45;;;0.55;;
77076;SDS011;66003;52.286;104.306;2023-04-19T10:12:47;1.08;;;0.63;;
77076;SDS011;66003;52.286;104.306;2023-04-19T10:15:15;0.70;;;0.57;;
77076;SDS011;66003;52.286;104.306;2023-04-19T10:17:43;1.67;;;0.40;;
77076;SDS011;66003;52.286;104.306;2023-04-19T10:20:12;1.20;;;1.02;;
77076;SDS011;66003;52.286;104.306;2023-04-19T10:22:48;0.77;;;0.73;;
77076;SDS011;66003;52.286;104.306;2023-04-19T10:25:14;1.63;;;0.73;;
77076;SDS011;66003;52.286;104.306;2023-04-19T10:27:42;0.60;;;0.60;;
77076;SDS011;66003;52.286;104.306;2023-04-19T10:30:17;3.67;;;1.00;;
77076;SDS011;66003;52.286;104.306;2023-04-19T10:32:50;0.70;;;0.63;;
77076;SDS011;66003;52.286;104.306;2023-04-19T10:35:19;2.55;;;0.57;;
77076;SDS011;66003;52.286;104.306;2023-04-19T10:38:07;0.88;;;0.47;;
77076;SDS011;66003;52.286;104.306;2023-04-19T10:40:53;1.30;;;0.82;;
77076;SDS011;66003;52.286;104.306;2023-04-19T10:43:26;1.25;;;0.65;;
77076;SDS011;66003;52.286;104.306;2023-04-19T10:45:54;2.13;;;1.38;;
77076;SDS011;66003;52.286;104.306;2023-04-19T10:53:43;0.38;;;0.38;;
77076;SDS011;66003;52.286;104.306;2023-04-19T10:56:14;1.63;;;1.33;;
77076;SDS011;66003;52.286;104.306;2023-04-19T11:04:08;2.25;;;1.08;;
77076;SDS011;66003;52.286;104.306;2023-04-19T11:06:36;1.23;;;1.10;;
77076;SDS011;66003;52.286;104.306;2023-04-19T11:09:03;3.25;;;1.08;;
77076;SDS011;66003;52.286;104.306;2023-04-19T11:11:35;1.27;;;0.88;;
77076;SDS011;66003;52.286;104.306;2023-04-19T11:14:04;2.22;;;1.00;;
77076;SDS011;66003;52.286;104.306;2023-04-19T11:16:33;2.38;;;0.73;;
77076;SDS011;66003;52.286;104.306;2023-04-19T11:18:59;2.58;;;0.73;;
77076;SDS011;66003;52.286;104.306;2023-04-19T11:21:25;2.33;;;1.00;;
77076;SDS011;66003;52.286;104.306;2023-04-19T11:26:34;1.30;;;0.70;;
77076;SDS011;66003;52.286;104.306;2023-04-19T11:29:00;2.67;;;0.75;;
77076;SDS011;66003;52.286;104.306;2023-04-19T11:31:27;2.05;;;1.17;;
77076;SDS011;66003;52.286;104.306;2023-04-19T11:33:57;4.13;;;0.95;;
77076;SDS011;66003;52.286;104.306;2023-04-19T11:36:27;2.75;;;1.17;;
77076;SDS011;66003;52.286;104.306;2023-04-19T11:38:53;5.13;;;1.63;;
77076;SDS011;66003;52.286;104.306;2023-04-19T11:41:19;18.67;;;3.85;;
77076;SDS011;66003;52.286;104.306;2023-04-19T11:43:45;18.48;;;2.42;;
77076;SDS011;66003;52.286;104.306;2023-04-19T11:46:12;6.63;;;2.00;;
77076;SDS011;66003;52.286;104.306;2023-04-19T11:49:00;19.42;;;4.50;;
77076;SDS011;66003;52.286;104.306;2023-04-19T11:53:51;8.00;;;1.92;;
77076;SDS011;66003;52.286;104.306;2023-04-19T11:56:17;4.00;;;1.70;;
77076;SDS011;66003;52.286;104.306;2023-04-19T11:58:44;4.25;;;1.98;;
77076;SDS011;66003;52.286;104.306;2023-04-19T12:01:14;3.90;;;1.65;;
77076;SDS011;66003;52.286;104.306;2023-04-19T12:03:47;7.88;;;2.58;;
77076;SDS011;66003;52.286;104.306;2023-04-19T12:06:22;8.77;;;3.72;;
77076;SDS011;66003;52.286;104.306;2023-04-19T12:08:58;8.45;;;2.30;;
77076;SDS011;66003;52.286;104.306;2023-04-19T12:11:27;6.88;;;2.72;;
77076;SDS011;66003;52.286;104.306;2023-04-19T12:16:36;6.32;;;2.03;;
77076;SDS011;66003;52.286;104.306;2023-04-19T12:19:12;5.00;;;1.95;;
77076;SDS011;66003;52.286;104.306;2023-04-19T12:21:42;1.33;;;1.23;;
77076;SDS011;66003;52.286;104.306;2023-04-19T12:24:09;6.78;;;1.65;;
77076;SDS011;66003;52.286;104.306;2023-04-19T12:26:36;4.75;;;1.13;;
77076;SDS011;66003;52.286;104.306;2023-04-19T12:29:19;7.88;;;1.98;;
77076;SDS011;66003;52.286;104.306;2023-04-19T12:31:45;2.58;;;1.05;;
77076;SDS011;66003;52.286;104.306;2023-04-19T12:34:12;9.40;;;2.85;;
77076;SDS011;66003;52.286;104.306;2023-04-19T12:36:44;3.63;;;2.53;;
77076;SDS011;66003;52.286;104.306;2023-04-19T12:39:10;5.53;;;1.75;;
77076;SDS011;66003;52.286;104.306;2023-04-19T12:41:37;7.78;;;2.00;;
77076;SDS011;66003;52.286;104.306;2023-04-19T12:44:03;2.22;;;1.30;;
77076;SDS011;66003;52.286;104.306;2023-04-19T12:46:30;7.93;;;1.50;;
77076;SDS011;66003;52.286;104.306;2023-04-19T12:48:56;4.55;;;1.27;;
77076;SDS011;66003;52.286;104.306;2023-04-19T12:51:22;3.83;;;1.05;;
77076;SDS011;66003;52.286;104.306;2023-04-19T12:53:49;1.85;;;1.15;;
77076;SDS011;66003;52.286;104.306;2023-04-19T12:56:17;2.47;;;1.02;;
77076;SDS011;66003;52.286;104.306;2023-04-19T12:58:43;3.30;;;1.77;;
77076;SDS011;66003;52.286;104.306;2023-04-19T13:01:09;7.35;;;2.72;;
77076;SDS011;66003;52.286;104.306;2023-04-19T13:03:36;1.85;;;1.27;;
77076;SDS011;66003;52.286;104.306;2023-04-19T13:06:02;3.03;;;1.02;;
77076;SDS011;66003;52.286;104.306;2023-04-19T13:08:29;1.73;;;1.35;;
77076;SDS011;66003;52.286;104.306;2023-04-19T13:10:55;1.90;;;1.42;;
77076;SDS011;66003;52.286;104.306;2023-04-19T13:13:24;3.90;;;2.22;;
77076;SDS011;66003;52.286;104.306;2023-04-19T13:15:51;3.70;;;2.00;;
77076;SDS011;66003;52.286;104.306;2023-04-19T13:18:17;10.50;;;3.30;;
77076;SDS011;66003;52.286;104.306;2023-04-19T13:20:44;7.63;;;2.30;;
77076;SDS011;66003;52.286;104.306;2023-04-19T13:23:11;5.10;;;2.95;;
77076;SDS011;66003;52.286;104.306;2023-04-19T13:25:37;3.97;;;1.88;;
77076;SDS011;66003;52.286;104.306;2023-04-19T13:28:03;7.30;;;2.72;;
77076;SDS011;66003;52.286;104.306;2023-04-19T13:30:29;4.13;;;1.30;;
77076;SDS011;66003;52.286;104.306;2023-04-19T13:32:56;4.75;;;2.10;;
77076;SDS011;66003;52.286;104.306;2023-04-19T13:35:22;5.90;;;2.53;;
77076;SDS011;66003;52.286;104.306;2023-04-19T13:37:49;10.15;;;1.55;;
77076;SDS011;66003;52.286;104.306;2023-04-19T13:40:16;7.47;;;2.42;;
77076;SDS011;66003;52.286;104.306;2023-04-19T13:42:42;3.78;;;1.30;;
77076;SDS011;66003;52.286;104.306;2023-04-19T13:45:08;3.38;;;1.67;;
77076;SDS011;66003;52.286;104.306;2023-04-19T13:47:35;3.30;;;1.63;;
77076;SDS011;66003;52.286;104.306;2023-04-19T13:50:01;5.53;;;1.67;;
77076;SDS011;66003;52.286;104.306;2023-04-19T13:52:30;6.47;;;2.22;;
77076;SDS011;66003;52.286;104.306;2023-04-19T13:54:56;7.40;;;1.75;;
77076;SDS011;66003;52.286;104.306;2023-04-19T13:57:22;3.78;;;1.95;;
77076;SDS011;66003;52.286;104.306;2023-04-19T13:59:48;5.65;;;1.38;;
77076;SDS011;66003;52.286;104.306;2023-04-19T14:02:15;3.22;;;1.40;;
77076;SDS011;66003;52.286;104.306;2023-04-19T14:04:41;5.72;;;1.98;;
77076;SDS011;66003;52.286;104.306;2023-04-19T14:07:07;4.63;;;1.88;;
77076;SDS011;66003;52.286;104.306;2023-04-19T14:09:34;3.85;;;1.50;;
77076;SDS011;66003;52.286;104.306;2023-04-19T14:12:01;1.20;;;1.05;;
77076;SDS011;66003;52.286;104.306;2023-04-19T14:14:29;2.22;;;1.33;;
77076;SDS011;66003;52.286;104.306;2023-04-19T14:16:55;2.17;;;1.38;;
77076;SDS011;66003;52.286;104.306;2023-04-19T14:19:21;2.80;;;1.15;;
77076;SDS011;66003;52.286;104.306;2023-04-19T14:21:47;1.88;;;1.75;;
77076;SDS011;66003;52.286;104.306;2023-04-19T14:24:13;2.03;;;1.20;;
77076;SDS011;66003;52.286;104.306;2023-04-19T14:26:40;2.13;;;1.10;;
77076;SDS011;66003;52.286;104.306;2023-04-19T14:29:06;1.73;;;1.17;;
77076;SDS011;66003;52.286;104.306;2023-04-19T14:31:32;0.93;;;0.70;;
77076;SDS011;66003;52.286;104.306;2023-04-19T14:33:59;1.45;;;1.35;;
77076;SDS011;66003;52.286;104.306;2023-04-19T14:36:26;1.17;;;1.15;;
77076;SDS011;66003;52.286;104.306;2023-04-19T14:38:52;1.50;;;1.40;;
77076;SDS011;66003;52.286;104.306;2023-04-19T14:41:18;4.75;;;1.73;;
77076;SDS011;66003;52.286;104.306;2023-04-19T14:43:45;2.65;;;1.27;;
77076;SDS011;66003;52.286;104.306;2023-04-19T14:46:12;3.67;;;1.60;;
77076;SDS011;66003;52.286;104.306;2023-04-19T14:48:38;2.45;;;1.52;;
77076;SDS011;66003;52.286;104.306;2023-04-19T14:51:04;1.38;;;0.38;;
77076;SDS011;66003;52.286;104.306;2023-04-19T14:53:31;1.70;;;1.38;;
77076;SDS011;66003;52.286;104.306;2023-04-19T14:55:58;1.20;;;0.80;;
77076;SDS011;66003;52.286;104.306;2023-04-19T14:58:24;5.13;;;0.43;;
77076;SDS011;66003;52.286;104.306;2023-04-19T15:00:50;1.33;;;0.98;;
77076;SDS011;66003;52.286;104.306;2023-04-19T15:03:16;2.92;;;1.35;;
77076;SDS011;66003;52.286;104.306;2023-04-19T15:05:43;1.95;;;1.85;;
77076;SDS011;66003;52.286;104.306;2023-04-19T15:08:09;2.58;;;1.40;;
77076;SDS011;66003;52.286;104.306;2023-04-19T15:10:35;1.20;;;0.85;;
77076;SDS011;66003;52.286;104.306;2023-04-19T15:13:02;6.05;;;2.00;;